ADDS METAR Data INFO
IDs: Format: Raw Decoded Include TAF

Data at: 1936 UTC 17 Jul 2018

METAR for:KAOH (Lima/Allen Cnty, OH, US)
Text:KAOH 171853Z AUTO 34013G18KT 10SM FEW065 27/15 A3000 RMK AO2 SLP152 T02720150
Temperature: 27.2°C ( 81°F)
Dewpoint: 15.0°C ( 59°F) [RH = 47%]
Pressure (altimeter):30.00 inches Hg (1016.0 mb) [Sea level pressure: 1015.2 mb]
Winds:from the NNW (340 degrees) at 15 MPH (13 knots; 6.7 m/s) gusting to 21 MPH (18 knots; 9.3 m/s)
Visibility:10 or more sm (16+ km)
Ceiling:at least 12,000 feet AGL
Clouds: few clouds at 6500 feet AGL
QC Flag:automated observation with no human augmentation